Terminal Aerodrome Forecast
Issued by NWS Duluth, MN

Home | Current Version | Previous Version | Text Only | Print | Product List | Glossary On
Versions: 1 2 3 4 5 6 7 8 9 10 11 12 13 14 15 16 17 18 19 20
000
FTUS43 KDLH 231404 AAA
TAFINL
TAF AMD
KINL 231404Z 2314/2412 17006KT P6SM VCSH SCT024 BKN040
     FM231600 19010G17KT P6SM SCT027 SCT040
     FM231900 20010G17KT P6SM BKN040
      TEMPO 2319/2323 5SM -TSRA SCT022 BKN035CB
     FM232300 25009KT P6SM VCSH BKN050
     FM240300 VRB03KT P6SM SCT050=

USA.gov is the U.S. government's official web portal to all federal, state and local government web resources and services.